Time;durP1;ratioP1;P1;durP2;ratioP2;P2;SDS_P1;SDS_P2;PMS_P1;PMS_P2;Temp;Humidity;BMP_temperature;BMP_pressure;BME280_temperature;BME280_humidity;BME280_pressure;Samples;Min_cycle;Max_cycle;Signal;HPM_P1;HPM_P2
2022/12/28 00:02:07;;;;;;;7.43;1.83;;;;;;;;;;5091863;28;20031;-53
2022/12/28 00:04:32;;;;;;;3.63;1.88;;;;;;;;;;5074288;28;20032;-56
2022/12/28 00:06:57;;;;;;;4.72;1.95;;;;;;;;;;5092311;28;20032;-56
2022/12/28 00:09:24;;;;;;;6.78;2.22;;;;;;;;;;5099404;28;20060;-56
2022/12/28 00:11:49;;;;;;;5.45;1.80;;;;;;;;;;5106750;28;20074;-60
2022/12/28 00:14:15;;;;;;;4.78;2.00;;;;;;;;;;5092601;28;20036;-58
2022/12/28 00:16:41;;;;;;;5.82;2.08;;;;;;;;;;5092711;28;20038;-54
2022/12/28 00:19:13;;;;;;;6.28;1.90;;;;;;;;;;5091661;28;20035;-57
2022/12/28 00:21:38;;;;;;;4.43;1.92;;;;;;;;;;5092916;28;20491;-57
2022/12/28 00:24:05;;;;;;;4.63;1.88;;;;;;;;;;5104225;28;20106;-57
2022/12/28 00:26:33;;;;;;;6.18;1.98;;;;;;;;;;5096053;28;20030;-57
2022/12/28 00:28:59;;;;;;;5.57;1.50;;;;;;;;;;5114125;28;20111;-56
2022/12/28 00:31:24;;;;;;;7.97;1.60;;;;;;;;;;5105852;28;20101;-57
2022/12/28 00:33:50;;;;;;;5.72;1.92;;;;;;;;;;5095187;28;20032;-58
2022/12/28 00:36:16;;;;;;;3.72;1.42;;;;;;;;;;5103880;28;20035;-56
2022/12/28 00:38:42;;;;;;;4.97;1.70;;;;;;;;;;5109655;28;20043;-57
2022/12/28 00:41:08;;;;;;;2.40;1.25;;;;;;;;;;5094305;28;20054;-56
2022/12/28 00:43:34;;;;;;;2.60;1.45;;;;;;;;;;5095355;28;20043;-55
2022/12/28 00:46:00;;;;;;;4.22;1.60;;;;;;;;;;5096024;28;20040;-55
2022/12/28 00:48:25;;;;;;;2.47;1.40;;;;;;;;;;5095733;28;20030;-56
2022/12/28 00:50:51;;;;;;;5.90;1.98;;;;;;;;;;5107815;28;20553;-58
2022/12/28 00:53:16;;;;;;;3.78;1.20;;;;;;;;;;5096528;28;20035;-53
2022/12/28 00:55:42;;;;;;;7.25;2.05;;;;;;;;;;5097197;28;20112;-54
2022/12/28 00:58:08;;;;;;;5.55;1.85;;;;;;;;;;5103399;28;20122;-55
2022/12/28 01:00:34;;;;;;;5.68;1.98;;;;;;;;;;5098133;28;20380;-55
2022/12/28 01:03:00;;;;;;;3.83;1.83;;;;;;;;;;5094216;28;20024;-55
2022/12/28 01:05:25;;;;;;;5.47;2.17;;;;;;;;;;5104061;28;20026;-58
2022/12/28 01:07:50;;;;;;;3.65;1.67;;;;;;;;;;5091879;28;20050;-61
2022/12/28 01:10:17;;;;;;;3.90;1.60;;;;;;;;;;5105356;28;20066;-58
2022/12/28 01:12:42;;;;;;;2.38;1.48;;;;;;;;;;5100042;28;20472;-57
2022/12/28 01:15:09;;;;;;;3.58;1.58;;;;;;;;;;5100177;28;20061;-58
2022/12/28 01:17:35;;;;;;;4.65;1.60;;;;;;;;;;5110129;28;20412;-58
2022/12/28 01:20:00;;;;;;;3.72;1.40;;;;;;;;;;5096798;28;20063;-58
2022/12/28 01:22:27;;;;;;;6.10;1.80;;;;;;;;;;5097262;28;20024;-59
2022/12/28 01:24:52;;;;;;;3.72;1.70;;;;;;;;;;5106385;28;20046;-60
2022/12/28 01:27:18;;;;;;;4.90;2.00;;;;;;;;;;5105016;28;20036;-58
2022/12/28 01:29:44;;;;;;;4.95;1.85;;;;;;;;;;5114048;28;20035;-60
2022/12/28 01:32:09;;;;;;;4.80;1.45;;;;;;;;;;5077837;28;20110;-61
2022/12/28 01:34:35;;;;;;;4.18;1.70;;;;;;;;;;5097330;28;20023;-62
2022/12/28 01:37:00;;;;;;;6.22;1.55;;;;;;;;;;5093064;28;20028;-63
2022/12/28 01:39:26;;;;;;;4.75;1.88;;;;;;;;;;5093411;28;20084;-62
2022/12/28 01:41:51;;;;;;;3.80;1.73;;;;;;;;;;5107270;28;20031;-62
2022/12/28 01:44:23;;;;;;;6.22;2.03;;;;;;;;;;5095121;28;20035;-62
2022/12/28 01:46:51;;;;;;;5.60;2.05;;;;;;;;;;5108570;28;20039;-62
2022/12/28 01:49:22;;;;;;;5.53;1.65;;;;;;;;;;5106938;28;20040;-62
2022/12/28 01:52:03;;;;;;;;;;;;;;;;;;5110252;28;20020;-60
2022/12/28 01:54:33;;;;;;;6.57;1.73;;;;;;;;;;5107120;28;19912;-60
2022/12/28 01:56:59;;;;;;;4.30;1.92;;;;;;;;;;5103602;28;20385;-61
2022/12/28 01:59:28;;;;;;;4.40;1.80;;;;;;;;;;5095767;28;20457;-60
2022/12/28 02:01:53;;;;;;;5.30;1.90;;;;;;;;;;5095756;28;20032;-61
2022/12/28 02:04:19;;;;;;;5.65;1.90;;;;;;;;;;5082743;28;20031;-60
2022/12/28 02:06:45;;;;;;;6.97;2.17;;;;;;;;;;5098674;28;20329;-60
2022/12/28 02:09:18;;;;;;;5.32;2.38;;;;;;;;;;5095491;28;20085;-65
2022/12/28 02:11:43;;;;;;;6.53;2.10;;;;;;;;;;5095643;28;20032;-61
2022/12/28 02:14:11;;;;;;;6.28;1.48;;;;;;;;;;5097047;28;20042;-61
2022/12/28 02:16:37;;;;;;;4.55;2.00;;;;;;;;;;5105754;28;20036;-61
2022/12/28 02:19:04;;;;;;;4.18;1.80;;;;;;;;;;5097836;28;20093;-60
2022/12/28 02:21:57;;;;;;;5.80;1.92;;;;;;;;;;5099383;28;20027;-60
2022/12/28 02:25:05;;;;;;;2.88;1.90;;;;;;;;;;5096454;28;20023;-61
2022/12/28 02:27:55;;;;;;;5.68;2.10;;;;;;;;;;5105709;28;20039;-60
2022/12/28 02:30:21;;;;;;;3.63;1.33;;;;;;;;;;5093179;28;20027;-60
2022/12/28 02:33:01;;;;;;;4.18;1.45;;;;;;;;;;5100486;28;20027;-60
2022/12/28 02:35:53;;;;;;;3.33;1.70;;;;;;;;;;5080914;28;20056;-61
2022/12/28 02:38:52;;;;;;;5.88;1.90;;;;;;;;;;5098008;28;20557;-61
2022/12/28 02:41:21;;;;;;;4.55;1.60;;;;;;;;;;5091642;28;20024;-61
2022/12/28 02:43:47;;;;;;;2.42;1.60;;;;;;;;;;5102347;28;20103;-61
2022/12/28 02:52:22;;;;;;;3.63;1.77;;;;;;;;;;5017310;28;20041;-62
2022/12/28 02:58:37;;;;;;;5.10;1.55;;;;;;;;;;5094847;28;20503;-61
2022/12/28 03:01:40;;;;;;;2.85;1.60;;;;;;;;;;5057520;28;20568;-62
2022/12/28 03:04:18;;;;;;;1.00;0.90;;;;;;;;;;5095207;28;20043;-61
2022/12/28 03:09:42;;;;;;;3.72;1.73;;;;;;;;;;5092748;28;20050;-61
2022/12/28 03:12:13;;;;;;;6.95;1.70;;;;;;;;;;5105628;28;20106;-62
2022/12/28 03:14:45;;;;;;;1.63;1.38;;;;;;;;;;5092598;28;20040;-61
2022/12/28 03:31:14;;;;;;;4.18;2.00;;;;;;;;;;5091635;28;20185;-61
2022/12/28 03:33:44;;;;;;;4.80;2.38;;;;;;;;;;5100555;28;20030;-61
2022/12/28 03:36:35;;;;;;;6.83;2.30;;;;;;;;;;5109923;28;20423;-62
2022/12/28 03:39:14;;;;;;;;;;;;;;;;;;5101249;28;20047;-62
2022/12/28 03:44:57;;;;;;;4.18;2.22;;;;;;;;;;5101625;28;20126;-61
2022/12/28 03:47:25;;;;;;;4.00;2.10;;;;;;;;;;5103001;28;20636;-61
2022/12/28 03:49:51;;;;;;;4.18;2.15;;;;;;;;;;5098368;28;20032;-62
2022/12/28 03:52:16;;;;;;;7.20;2.60;;;;;;;;;;5096793;28;20036;-62
2022/12/28 03:54:42;;;;;;;5.68;2.53;;;;;;;;;;5106045;28;20340;-61
2022/12/28 03:57:08;;;;;;;5.68;2.40;;;;;;;;;;5092564;28;20044;-62
2022/12/28 03:59:33;;;;;;;6.03;2.45;;;;;;;;;;5094374;28;20024;-62
2022/12/28 04:01:59;;;;;;;4.50;1.98;;;;;;;;;;5101543;28;20031;-61
2022/12/28 04:04:24;;;;;;;4.85;2.38;;;;;;;;;;5095594;28;20504;-63
2022/12/28 04:06:49;;;;;;;4.60;2.63;;;;;;;;;;5088493;28;20152;-62
2022/12/28 04:09:15;;;;;;;4.30;2.13;;;;;;;;;;5110238;28;20062;-62
2022/12/28 04:11:40;;;;;;;2.53;1.38;;;;;;;;;;5099780;28;20107;-62
2022/12/28 04:14:05;;;;;;;4.80;2.35;;;;;;;;;;5073356;28;20031;-63
2022/12/28 04:16:31;;;;;;;6.80;2.50;;;;;;;;;;5106403;28;20054;-62
2022/12/28 04:18:56;;;;;;;4.88;2.50;;;;;;;;;;5093289;28;20032;-63
2022/12/28 04:21:22;;;;;;;4.05;2.40;;;;;;;;;;5091777;28;20488;-62
2022/12/28 04:23:47;;;;;;;3.60;2.10;;;;;;;;;;5093225;28;20352;-62
2022/12/28 04:26:14;;;;;;;7.35;2.20;;;;;;;;;;5099993;28;20084;-61
2022/12/28 04:28:40;;;;;;;3.67;2.30;;;;;;;;;;5096282;28;20036;-60
2022/12/28 04:31:07;;;;;;;3.33;2.08;;;;;;;;;;5107895;28;20088;-61
2022/12/28 04:33:36;;;;;;;7.63;2.17;;;;;;;;;;5105502;28;20096;-60
2022/12/28 04:36:06;;;;;;;8.48;2.60;;;;;;;;;;5098305;28;20031;-60
2022/12/28 04:38:32;;;;;;;4.53;2.25;;;;;;;;;;5092040;28;20114;-61
2022/12/28 04:40:58;;;;;;;6.05;2.50;;;;;;;;;;5105543;28;20032;-60
2022/12/28 04:43:23;;;;;;;4.90;2.42;;;;;;;;;;5107648;28;20028;-60
2022/12/28 04:46:05;;;;;;;6.55;2.67;;;;;;;;;;5104640;28;20028;-60
2022/12/28 04:48:31;;;;;;;4.95;2.13;;;;;;;;;;5072903;28;20111;-60
2022/12/28 04:50:56;;;;;;;4.95;2.22;;;;;;;;;;5099528;28;20146;-59
2022/12/28 04:53:22;;;;;;;7.32;2.78;;;;;;;;;;5097895;28;20453;-60
2022/12/28 04:55:48;;;;;;;6.15;2.50;;;;;;;;;;5092505;28;20028;-60
2022/12/28 04:58:13;;;;;;;3.92;2.38;;;;;;;;;;5091163;28;20052;-60
2022/12/28 05:00:39;;;;;;;6.25;2.72;;;;;;;;;;5099760;28;20076;-60
2022/12/28 05:03:04;;;;;;;6.32;2.60;;;;;;;;;;5081723;28;20060;-60
2022/12/28 05:05:30;;;;;;;8.35;2.85;;;;;;;;;;5091546;28;20028;-59
2022/12/28 05:07:59;;;;;;;8.85;3.03;;;;;;;;;;5092919;28;20060;-60
2022/12/28 05:10:24;;;;;;;6.07;2.38;;;;;;;;;;5100109;28;20307;-58
2022/12/28 05:12:50;;;;;;;3.47;1.98;;;;;;;;;;5094349;28;20487;-59
2022/12/28 05:15:15;;;;;;;6.93;3.17;;;;;;;;;;5113515;28;20035;-59
2022/12/28 05:17:41;;;;;;;6.78;3.00;;;;;;;;;;5113998;28;20102;-59
2022/12/28 05:20:06;;;;;;;4.82;2.63;;;;;;;;;;5110495;28;20028;-61
2022/12/28 05:22:32;;;;;;;6.18;2.85;;;;;;;;;;5099444;28;20031;-61
2022/12/28 05:24:57;;;;;;;4.80;2.78;;;;;;;;;;5094708;28;20376;-59
2022/12/28 05:27:23;;;;;;;4.57;3.22;;;;;;;;;;5107863;28;20468;-58
2022/12/28 05:29:48;;;;;;;6.15;2.92;;;;;;;;;;5094661;28;20046;-58
2022/12/28 05:32:13;;;;;;;6.65;3.55;;;;;;;;;;5093960;28;20024;-61
2022/12/28 05:34:39;;;;;;;6.00;3.08;;;;;;;;;;5097158;28;20035;-60
2022/12/28 05:37:04;;;;;;;7.68;3.70;;;;;;;;;;5106426;28;20039;-58
2022/12/28 05:39:30;;;;;;;9.07;4.10;;;;;;;;;;5095578;28;20031;-60
2022/12/28 05:41:58;;;;;;;8.55;3.58;;;;;;;;;;5105358;28;20093;-60
2022/12/28 05:44:28;;;;;;;8.70;3.63;;;;;;;;;;5093483;28;20064;-59
2022/12/28 05:46:53;;;;;;;7.20;3.40;;;;;;;;;;5094801;28;20028;-59
2022/12/28 05:49:19;;;;;;;5.78;3.20;;;;;;;;;;5095111;28;20040;-60
2022/12/28 05:51:44;;;;;;;8.65;3.53;;;;;;;;;;5096520;28;20456;-59
2022/12/28 05:54:09;;;;;;;9.32;3.90;;;;;;;;;;5094948;28;20036;-60
2022/12/28 05:56:35;;;;;;;8.75;4.10;;;;;;;;;;5099857;28;20026;-60
2022/12/28 05:59:05;;;;;;;10.65;4.38;;;;;;;;;;5095163;28;20078;-61
2022/12/28 06:01:34;;;;;;;9.00;4.03;;;;;;;;;;5093308;28;20294;-60
2022/12/28 06:04:06;;;;;;;7.00;3.85;;;;;;;;;;5096543;28;20040;-61
2022/12/28 06:06:34;;;;;;;4.82;2.80;;;;;;;;;;5086242;28;20226;-61
2022/12/28 06:09:00;;;;;;;7.75;3.72;;;;;;;;;;5109664;28;20093;-60
2022/12/28 06:11:27;;;;;;;14.20;4.53;;;;;;;;;;5113879;28;20098;-60
2022/12/28 06:13:53;;;;;;;8.02;4.07;;;;;;;;;;5080539;28;20127;-60
2022/12/28 06:16:22;;;;;;;7.95;3.42;;;;;;;;;;5095535;28;20040;-61
2022/12/28 06:18:48;;;;;;;9.65;4.22;;;;;;;;;;5110073;28;20028;-61
2022/12/28 06:21:19;;;;;;;6.57;4.05;;;;;;;;;;5111359;28;20039;-61
2022/12/28 06:23:45;;;;;;;11.90;4.70;;;;;;;;;;5110535;28;20028;-59
2022/12/28 06:26:13;;;;;;;11.38;4.20;;;;;;;;;;5103978;28;20059;-61
2022/12/28 06:28:39;;;;;;;7.07;4.00;;;;;;;;;;5098001;28;20035;-60
2022/12/28 06:31:07;;;;;;;8.25;3.90;;;;;;;;;;5094172;28;20487;-61
2022/12/28 06:33:33;;;;;;;12.00;4.75;;;;;;;;;;5099042;28;20028;-60
2022/12/28 06:35:59;;;;;;;11.25;4.70;;;;;;;;;;5110616;28;20038;-60
2022/12/28 06:38:26;;;;;;;8.45;4.32;;;;;;;;;;5108745;28;20027;-60
2022/12/28 06:40:51;;;;;;;8.57;4.30;;;;;;;;;;5100288;28;20042;-61
2022/12/28 06:43:17;;;;;;;11.25;4.18;;;;;;;;;;5104731;28;20036;-61
2022/12/28 06:45:42;;;;;;;10.10;4.90;;;;;;;;;;5076674;28;20395;-61
2022/12/28 06:48:08;;;;;;;10.32;4.80;;;;;;;;;;5111130;28;20041;-61
2022/12/28 06:50:33;;;;;;;5.75;3.28;;;;;;;;;;5103770;28;20480;-61
2022/12/28 06:52:58;;;;;;;7.57;4.60;;;;;;;;;;5095739;28;20479;-61
2022/12/28 06:55:24;;;;;;;12.98;4.28;;;;;;;;;;5093480;28;20028;-60
2022/12/28 06:57:49;;;;;;;10.25;4.70;;;;;;;;;;5094516;28;20040;-60
2022/12/28 07:00:15;;;;;;;10.10;4.70;;;;;;;;;;5092318;28;20089;-61
2022/12/28 07:02:40;;;;;;;10.40;5.00;;;;;;;;;;5098398;28;20472;-61
2022/12/28 07:05:06;;;;;;;11.43;4.43;;;;;;;;;;5101405;28;20032;-60
2022/12/28 07:07:31;;;;;;;9.40;3.80;;;;;;;;;;5093551;28;20511;-61
2022/12/28 07:09:57;;;;;;;11.85;5.03;;;;;;;;;;5084790;28;20032;-59
2022/12/28 07:12:22;;;;;;;10.73;5.05;;;;;;;;;;5096097;28;20475;-60
2022/12/28 07:14:48;;;;;;;5.07;3.00;;;;;;;;;;5094118;28;20032;-61
2022/12/28 07:17:13;;;;;;;11.02;4.55;;;;;;;;;;5097524;28;20023;-60
2022/12/28 07:19:38;;;;;;;7.60;4.03;;;;;;;;;;5103132;28;20548;-61
2022/12/28 07:22:04;;;;;;;8.15;3.65;;;;;;;;;;5098778;28;20085;-60
2022/12/28 07:24:29;;;;;;;6.18;3.05;;;;;;;;;;5105825;28;20047;-60
2022/12/28 07:26:54;;;;;;;6.65;3.33;;;;;;;;;;5108627;28;20035;-59
2022/12/28 07:29:20;;;;;;;7.97;3.67;;;;;;;;;;5097731;28;20031;-60
2022/12/28 07:31:45;;;;;;;3.95;2.42;;;;;;;;;;5096742;28;20023;-59
2022/12/28 07:34:12;;;;;;;5.78;3.22;;;;;;;;;;5084359;28;20035;-59
2022/12/28 07:36:37;;;;;;;6.40;3.40;;;;;;;;;;5104179;28;20039;-60
2022/12/28 07:39:03;;;;;;;5.22;2.80;;;;;;;;;;5109398;28;20039;-59
2022/12/28 07:41:34;;;;;;;7.18;3.70;;;;;;;;;;5111247;28;20024;-59
2022/12/28 07:44:00;;;;;;;;;;;;;;;;;;5112931;28;20026;-59
2022/12/28 07:46:31;;;;;;;4.53;2.70;;;;;;;;;;5110537;28;19912;-60
2022/12/28 07:48:56;;;;;;;4.45;2.70;;;;;;;;;;5111734;28;20392;-59
2022/12/28 07:51:29;;;;;;;4.30;2.70;;;;;;;;;;5111478;28;20032;-60
2022/12/28 07:53:56;;;;;;;6.70;3.40;;;;;;;;;;5106507;28;20118;-60
2022/12/28 07:56:23;;;;;;;6.65;3.72;;;;;;;;;;5106568;28;20123;-61
2022/12/28 07:58:49;;;;;;;8.45;3.50;;;;;;;;;;5079359;28;20062;-60
2022/12/28 08:01:17;;;;;;;3.42;2.20;;;;;;;;;;5110726;28;20059;-59
2022/12/28 08:03:43;;;;;;;6.05;3.55;;;;;;;;;;5097514;28;20032;-60
2022/12/28 08:06:18;;;;;;;5.60;3.25;;;;;;;;;;5100328;28;20115;-59
2022/12/28 08:08:45;;;;;;;6.53;3.03;;;;;;;;;;5102614;28;20032;-59
2022/12/28 08:11:17;;;;;;;6.53;3.03;;;;;;;;;;5093946;28;20032;-59
2022/12/28 08:13:44;;;;;;;7.75;2.90;;;;;;;;;;5100477;28;20042;-59
2022/12/28 08:16:11;;;;;;;5.30;2.88;;;;;;;;;;5100458;28;20088;-60
2022/12/28 08:18:37;;;;;;;7.40;3.05;;;;;;;;;;5097367;28;20035;-60
2022/12/28 08:21:09;;;;;;;7.25;2.67;;;;;;;;;;5091311;28;20032;-59
2022/12/28 08:23:35;;;;;;;5.47;3.00;;;;;;;;;;5103269;28;20032;-59
2022/12/28 08:26:05;;;;;;;6.82;2.72;;;;;;;;;;5111397;28;20532;-60
2022/12/28 08:28:30;;;;;;;4.72;2.15;;;;;;;;;;5110025;28;20038;-57
2022/12/28 08:30:56;;;;;;;4.78;2.30;;;;;;;;;;5095899;28;20047;-56
2022/12/28 08:33:21;;;;;;;3.97;2.45;;;;;;;;;;5110754;28;20463;-60
2022/12/28 08:35:47;;;;;;;5.07;2.90;;;;;;;;;;5096168;28;20032;-58
2022/12/28 08:38:12;;;;;;;5.75;2.65;;;;;;;;;;5108542;28;20460;-57
2022/12/28 08:40:37;;;;;;;4.95;2.97;;;;;;;;;;5105208;28;20051;-56
2022/12/28 08:43:03;;;;;;;4.93;2.97;;;;;;;;;;5097106;28;20111;-55
2022/12/28 08:45:28;;;;;;;5.00;3.10;;;;;;;;;;5107689;28;20047;-59
2022/12/28 08:47:54;;;;;;;4.65;2.25;;;;;;;;;;5092209;28;20031;-57
2022/12/28 08:50:19;;;;;;;5.40;2.90;;;;;;;;;;5109684;28;20036;-61
2022/12/28 08:52:45;;;;;;;8.60;3.10;;;;;;;;;;5104416;28;20032;-52
2022/12/28 08:55:10;;;;;;;7.95;3.00;;;;;;;;;;5110221;28;20362;-58
2022/12/28 08:57:35;;;;;;;6.13;2.80;;;;;;;;;;5106941;28;20118;-57
2022/12/28 09:00:04;;;;;;;4.95;2.50;;;;;;;;;;5108845;28;20032;-55
2022/12/28 09:02:29;;;;;;;6.18;2.38;;;;;;;;;;5114715;28;20024;-57
2022/12/28 09:04:54;;;;;;;2.42;1.65;;;;;;;;;;5096395;28;20020;-57
2022/12/28 09:07:20;;;;;;;4.18;1.88;;;;;;;;;;5105571;28;20066;-61
2022/12/28 09:09:45;;;;;;;4.80;1.98;;;;;;;;;;5113928;28;20387;-57
2022/12/28 09:12:11;;;;;;;2.88;2.00;;;;;;;;;;5115985;28;20102;-59
2022/12/28 09:14:36;;;;;;;2.50;1.70;;;;;;;;;;5113371;28;20401;-58
2022/12/28 09:17:01;;;;;;;4.25;2.30;;;;;;;;;;5110156;28;20023;-56
2022/12/28 09:19:27;;;;;;;3.17;1.90;;;;;;;;;;5113916;28;20034;-58
2022/12/28 09:21:54;;;;;;;6.00;2.15;;;;;;;;;;5111533;28;20027;-57
2022/12/28 09:24:20;;;;;;;5.28;1.83;;;;;;;;;;5078519;28;20089;-59
2022/12/28 09:26:46;;;;;;;2.72;1.52;;;;;;;;;;5109030;28;20024;-56
2022/12/28 09:29:15;;;;;;;2.85;1.67;;;;;;;;;;5112315;28;20035;-55
2022/12/28 09:31:40;;;;;;;4.88;2.00;;;;;;;;;;5114083;28;20169;-56
2022/12/28 09:34:10;;;;;;;5.22;2.03;;;;;;;;;;5114430;28;20110;-56
2022/12/28 09:36:40;;;;;;;4.47;1.75;;;;;;;;;;5111298;28;20035;-58
2022/12/28 09:39:08;;;;;;;2.65;1.40;;;;;;;;;;5099727;28;20036;-55
2022/12/28 09:41:41;;;;;;;2.63;1.50;;;;;;;;;;5093927;28;20043;-57
2022/12/28 09:44:15;;;;;;;3.65;1.90;;;;;;;;;;5109303;28;20080;-57
2022/12/28 09:47:07;;;;;;;5.68;1.70;;;;;;;;;;5096030;28;20216;-56
2022/12/28 09:49:43;;;;;;;4.35;1.40;;;;;;;;;;5076624;28;20031;-56
2022/12/28 09:52:28;;;;;;;3.95;2.00;;;;;;;;;;5107654;28;20027;-52
2022/12/28 09:54:56;;;;;;;3.05;1.40;;;;;;;;;;5110391;28;20023;-56
2022/12/28 09:57:24;;;;;;;1.90;1.30;;;;;;;;;;5113816;28;20079;-59
2022/12/28 09:59:51;;;;;;;4.15;1.70;;;;;;;;;;5104327;28;20034;-58
2022/12/28 10:02:30;;;;;;;3.05;1.38;;;;;;;;;;5114194;28;20028;-57
2022/12/28 10:04:56;;;;;;;1.67;1.20;;;;;;;;;;5092830;28;20043;-58
2022/12/28 10:07:22;;;;;;;3.92;1.38;;;;;;;;;;5094078;28;20469;-60
2022/12/28 10:09:48;;;;;;;4.28;1.45;;;;;;;;;;5102356;28;20063;-55
2022/12/28 10:12:20;;;;;;;2.42;1.20;;;;;;;;;;5105721;28;20059;-59
2022/12/28 10:14:46;;;;;;;2.92;1.17;;;;;;;;;;5103526;28;20038;-60
2022/12/28 10:17:13;;;;;;;3.70;1.20;;;;;;;;;;5114218;28;20032;-60
2022/12/28 10:19:39;;;;;;;1.88;1.05;;;;;;;;;;5094575;28;20036;-60
2022/12/28 10:22:12;;;;;;;2.67;0.95;;;;;;;;;;5106458;28;20036;-59
2022/12/28 10:24:39;;;;;;;3.05;1.40;;;;;;;;;;5112310;28;20035;-61
2022/12/28 10:27:06;;;;;;;3.03;0.90;;;;;;;;;;5112649;28;20038;-61
2022/12/28 10:29:32;;;;;;;0.80;0.80;;;;;;;;;;5076927;28;20455;-61
2022/12/28 10:32:11;;;;;;;2.17;1.27;;;;;;;;;;5098881;28;20028;-61
2022/12/28 10:34:53;;;;;;;3.35;1.38;;;;;;;;;;5099928;28;20057;-61
2022/12/28 10:37:18;;;;;;;1.30;1.13;;;;;;;;;;5095408;28;20052;-61
2022/12/28 10:40:08;;;;;;;2.72;1.00;;;;;;;;;;5094648;28;20067;-61
2022/12/28 10:42:39;;;;;;;2.10;1.30;;;;;;;;;;5101460;28;20064;-61
2022/12/28 10:45:16;;;;;;;2.03;1.20;;;;;;;;;;5094231;28;20418;-61
2022/12/28 10:47:45;;;;;;;0.98;0.90;;;;;;;;;;5091964;28;20111;-62
2022/12/28 10:50:40;;;;;;;1.30;1.02;;;;;;;;;;5110855;28;20042;-61
2022/12/28 10:53:25;;;;;;;3.17;1.00;;;;;;;;;;5102809;28;20024;-60
2022/12/28 10:56:09;;;;;;;5.15;1.13;;;;;;;;;;5111760;28;20376;-60
2022/12/28 10:58:35;;;;;;;2.05;0.98;;;;;;;;;;5091847;28;20048;-61
2022/12/28 11:01:16;;;;;;;2.38;1.20;;;;;;;;;;5111621;28;20081;-60
2022/12/28 11:03:43;;;;;;;;;;;;;;;;;;5112425;28;20042;-57
2022/12/28 11:06:18;;;;;;;1.05;0.90;;;;;;;;;;5093178;28;19912;-55
2022/12/28 11:08:59;;;;;;;1.42;1.10;;;;;;;;;;5096337;28;20028;-56
2022/12/28 11:11:24;;;;;;;2.50;1.40;;;;;;;;;;5101449;28;20036;-56
2022/12/28 11:14:11;;;;;;;1.42;0.93;;;;;;;;;;5094870;28;20061;-59
2022/12/28 11:16:37;;;;;;;1.13;1.00;;;;;;;;;;5091596;28;20109;-56
2022/12/28 11:19:03;;;;;;;0.98;0.80;;;;;;;;;;5109896;28;20027;-57
2022/12/28 11:21:29;;;;;;;1.20;0.90;;;;;;;;;;5111922;28;20026;-59
2022/12/28 11:23:55;;;;;;;2.58;0.82;;;;;;;;;;5076998;28;20055;-58
2022/12/28 11:26:21;;;;;;;1.75;1.17;;;;;;;;;;5111228;28;20124;-56
2022/12/28 11:28:51;;;;;;;2.22;1.00;;;;;;;;;;5095731;28;20764;-54
2022/12/28 11:31:29;;;;;;;1.33;0.90;;;;;;;;;;5092661;28;20098;-54
2022/12/28 11:34:04;;;;;;;0.80;0.80;;;;;;;;;;5094044;28;20035;-57
2022/12/28 11:36:32;;;;;;;1.73;1.15;;;;;;;;;;5092492;28;20035;-61
2022/12/28 11:39:26;;;;;;;2.25;1.25;;;;;;;;;;5112404;28;20035;-56
2022/12/28 11:42:01;;;;;;;3.17;1.15;;;;;;;;;;5103823;28;20027;-56
2022/12/28 11:44:29;;;;;;;2.22;1.10;;;;;;;;;;5093662;28;20476;-58
2022/12/28 11:47:19;;;;;;;1.77;1.00;;;;;;;;;;5111950;28;20039;-56
2022/12/28 11:49:46;;;;;;;1.45;0.93;;;;;;;;;;5101275;28;20035;-57
2022/12/28 11:52:26;;;;;;;4.07;1.08;;;;;;;;;;5073835;28;20028;-55
2022/12/28 11:55:20;;;;;;;2.20;1.02;;;;;;;;;;5102423;28;20038;-51
2022/12/28 11:57:45;;;;;;;5.55;1.10;;;;;;;;;;5097583;28;20111;-56
2022/12/28 12:00:20;;;;;;;2.45;1.08;;;;;;;;;;5112444;28;20406;-52
2022/12/28 12:02:49;;;;;;;2.25;1.50;;;;;;;;;;5101289;28;20032;-56
2022/12/28 12:05:36;;;;;;;1.52;1.00;;;;;;;;;;5094274;28;20417;-54
2022/12/28 12:08:21;;;;;;;4.05;1.20;;;;;;;;;;5111542;28;20023;-56
2022/12/28 12:10:48;;;;;;;2.38;1.08;;;;;;;;;;5103890;28;20047;-52
2022/12/28 12:13:43;;;;;;;1.02;0.90;;;;;;;;;;5112236;28;20060;-56
2022/12/28 12:16:23;;;;;;;5.38;1.45;;;;;;;;;;5108525;28;20536;-56
2022/12/28 12:18:54;;;;;;;2.78;1.40;;;;;;;;;;5111458;28;20066;-57
2022/12/28 12:21:28;;;;;;;;;;;;;;;;;;5110624;28;20106;-61
2022/12/28 12:24:03;;;;;;;4.60;1.67;;;;;;;;;;5110669;28;19911;-59
2022/12/28 12:27:13;;;;;;;4.40;1.70;;;;;;;;;;5111980;28;20445;-59
2022/12/28 12:29:43;;;;;;;3.95;1.75;;;;;;;;;;5010653;28;20040;-61
2022/12/28 12:32:16;;;;;;;3.92;1.70;;;;;;;;;;5108220;28;20118;-59
2022/12/28 12:34:51;;;;;;;3.67;1.88;;;;;;;;;;5109021;28;20031;-61
2022/12/28 12:37:30;;;;;;;4.25;2.05;;;;;;;;;;5075114;28;20036;-57
2022/12/28 12:40:07;;;;;;;6.68;2.30;;;;;;;;;;5111170;28;20034;-57
2022/12/28 12:42:56;;;;;;;4.57;2.30;;;;;;;;;;5080513;28;20036;-61
2022/12/28 12:45:35;;;;;;;3.97;2.13;;;;;;;;;;5093789;28;20063;-59
2022/12/28 12:48:19;;;;;;;3.92;2.10;;;;;;;;;;5093190;28;20040;-55
2022/12/28 12:50:56;;;;;;;5.95;2.20;;;;;;;;;;5085058;28;20286;-57
2022/12/28 12:53:52;;;;;;;6.55;2.00;;;;;;;;;;5099892;28;20061;-60
2022/12/28 12:56:38;;;;;;;3.47;2.03;;;;;;;;;;5091684;28;20039;-58
2022/12/28 12:59:16;;;;;;;3.35;1.70;;;;;;;;;;5109068;28;20078;-58
2022/12/28 13:01:51;;;;;;;2.28;1.45;;;;;;;;;;5111505;28;20478;-60
2022/12/28 13:04:21;;;;;;;3.10;1.55;;;;;;;;;;5110652;28;20038;-58
2022/12/28 13:06:55;;;;;;;3.43;1.70;;;;;;;;;;5110979;28;20039;-56
2022/12/28 13:09:24;;;;;;;4.03;1.30;;;;;;;;;;5092106;28;20039;-57
2022/12/28 13:11:50;;;;;;;2.40;1.33;;;;;;;;;;5092940;28;20024;-57
2022/12/28 13:14:21;;;;;;;3.42;1.63;;;;;;;;;;5102190;28;20032;-59
2022/12/28 13:16:51;;;;;;;;;;;;;;;;;;5111987;28;20061;-58
2022/12/28 13:19:28;;;;;;;3.80;1.52;;;;;;;;;;5111954;28;19915;-56
2022/12/28 13:21:54;;;;;;;2.25;1.25;;;;;;;;;;5110579;28;20057;-57
2022/12/28 13:24:33;;;;;;;1.05;0.95;;;;;;;;;;5110200;28;20081;-55
2022/12/28 13:26:59;;;;;;;3.35;1.33;;;;;;;;;;5092755;28;20039;-58
2022/12/28 13:29:37;;;;;;;3.75;1.50;;;;;;;;;;5110286;28;20028;-58
2022/12/28 13:32:03;;;;;;;2.72;1.48;;;;;;;;;;5110492;28;20036;-59
2022/12/28 13:34:33;;;;;;;2.60;1.20;;;;;;;;;;5111801;28;20032;-55
2022/12/28 13:37:01;;;;;;;2.95;1.73;;;;;;;;;;5079375;28;20142;-57
2022/12/28 13:39:32;;;;;;;4.20;1.23;;;;;;;;;;5096077;28;20046;-53
2022/12/28 13:42:01;;;;;;;3.63;1.50;;;;;;;;;;5104998;28;20031;-56
2022/12/28 13:44:44;;;;;;;3.22;1.95;;;;;;;;;;5115303;28;20027;-57
2022/12/28 13:47:27;;;;;;;3.25;2.08;;;;;;;;;;5107474;28;20039;-58
2022/12/28 13:49:58;;;;;;;6.03;2.00;;;;;;;;;;5093798;28;20062;-59
2022/12/28 13:52:33;;;;;;;;;;;;;;;;;;5094632;28;20042;-58
2022/12/28 13:55:03;;;;;;;4.80;1.88;;;;;;;;;;5112863;28;20097;-55
2022/12/28 13:57:30;;;;;;;4.35;1.80;;;;;;;;;;5102150;28;20048;-58
2022/12/28 13:59:57;;;;;;;3.55;1.85;;;;;;;;;;5099398;28;20080;-55
2022/12/28 14:02:23;;;;;;;6.22;2.50;;;;;;;;;;5114040;28;20444;-57
2022/12/28 14:04:50;;;;;;;5.63;2.50;;;;;;;;;;5111053;28;20420;-56
2022/12/28 14:07:18;;;;;;;7.32;3.10;;;;;;;;;;5093856;28;20080;-57
2022/12/28 14:09:45;;;;;;;3.72;2.20;;;;;;;;;;5102094;28;20437;-55
2022/12/28 14:12:12;;;;;;;5.68;2.00;;;;;;;;;;5093892;28;20078;-58
2022/12/28 14:14:38;;;;;;;3.42;1.83;;;;;;;;;;5109236;28;20031;-59
2022/12/28 14:17:05;;;;;;;4.75;2.30;;;;;;;;;;5114165;28;20076;-59
2022/12/28 14:19:31;;;;;;;5.47;2.20;;;;;;;;;;5103376;28;20027;-59
2022/12/28 14:21:56;;;;;;;3.67;1.98;;;;;;;;;;5112853;28;20106;-59
2022/12/28 14:24:22;;;;;;;6.72;3.03;;;;;;;;;;5094785;28;20026;-62
2022/12/28 14:26:49;;;;;;;7.20;2.95;;;;;;;;;;5094404;28;20046;-59
2022/12/28 14:29:28;;;;;;;11.25;4.70;;;;;;;;;;5112422;28;20115;-59
2022/12/28 14:31:56;;;;;;;10.50;3.65;;;;;;;;;;5093137;28;20036;-59
2022/12/28 14:34:26;;;;;;;4.97;2.35;;;;;;;;;;5093669;28;20032;-59
2022/12/28 14:36:53;;;;;;;5.00;2.13;;;;;;;;;;5092652;28;20031;-60
2022/12/28 14:39:27;;;;;;;6.20;2.20;;;;;;;;;;5112890;28;20023;-59
2022/12/28 14:41:53;;;;;;;6.30;2.63;;;;;;;;;;5113380;28;20057;-60
2022/12/28 14:44:39;;;;;;;8.38;3.28;;;;;;;;;;5113767;28;20031;-60
2022/12/28 14:47:31;;;;;;;7.20;3.47;;;;;;;;;;5112829;28;20475;-60
2022/12/28 14:49:58;;;;;;;6.65;2.10;;;;;;;;;;5111458;28;20344;-61
2022/12/28 14:52:27;;;;;;;7.70;2.42;;;;;;;;;;5113540;28;20043;-60
2022/12/28 14:54:54;;;;;;;5.35;2.28;;;;;;;;;;5108231;28;20035;-61
2022/12/28 14:57:39;;;;;;;3.72;1.75;;;;;;;;;;5088749;28;20086;-60
2022/12/28 15:00:20;;;;;;;4.80;2.10;;;;;;;;;;5089207;28;20032;-61
2022/12/28 15:02:47;;;;;;;4.78;1.90;;;;;;;;;;5084402;28;20469;-61
2022/12/28 15:05:30;;;;;;;5.22;2.00;;;;;;;;;;5092290;28;20470;-60
2022/12/28 15:07:56;;;;;;;6.10;2.20;;;;;;;;;;5072263;28;20025;-60
2022/12/28 15:10:21;;;;;;;7.93;2.28;;;;;;;;;;5090355;28;20117;-59
2022/12/28 15:12:47;;;;;;;3.25;2.00;;;;;;;;;;5089659;28;20025;-61
2022/12/28 15:15:12;;;;;;;3.58;2.00;;;;;;;;;;5074785;28;20041;-60
2022/12/28 15:17:37;;;;;;;5.75;2.15;;;;;;;;;;5085190;28;20028;-61
2022/12/28 15:20:03;;;;;;;4.30;2.00;;;;;;;;;;5073480;28;20155;-60
2022/12/28 15:22:29;;;;;;;6.32;2.20;;;;;;;;;;5082132;28;20028;-60
2022/12/28 15:24:54;;;;;;;4.85;2.10;;;;;;;;;;5091523;28;20032;-61
2022/12/28 15:27:20;;;;;;;5.70;2.20;;;;;;;;;;5090156;28;20490;-61
2022/12/28 15:29:45;;;;;;;5.78;2.40;;;;;;;;;;5089178;28;20078;-60
2022/12/28 15:32:10;;;;;;;6.80;2.20;;;;;;;;;;5091876;28;20039;-60